createdAt,value
2024-05-09T00:01:21.826Z,97553.69
2024-05-09T00:03:51.217Z,97549.25
2024-05-09T00:06:20.538Z,97549.25
2024-05-09T00:08:49.807Z,97544.03
2024-05-09T00:11:23.029Z,97540.78
2024-05-09T00:13:52.481Z,97546.16
2024-05-09T00:16:21.859Z,97546.50
2024-05-09T00:18:51.297Z,97541.44
2024-05-09T00:21:20.684Z,97544.06
2024-05-09T00:23:49.976Z,97537.84
2024-05-09T00:26:21.945Z,97541.13
2024-05-09T00:28:51.308Z,97534.88
2024-05-09T00:31:20.619Z,97539.16
2024-05-09T00:33:50.003Z,97537.34
2024-05-09T00:36:19.322Z,97535.53
2024-05-09T00:38:48.676Z,97535.53
2024-05-09T00:41:19.856Z,97533.09
2024-05-09T00:43:51.987Z,97537.84
2024-05-09T00:46:21.622Z,97531.63
2024-05-09T00:48:51.733Z,97531.63
2024-05-09T00:51:22.144Z,97535.88
2024-05-09T00:53:51.833Z,97532.09
2024-05-09T00:56:23.837Z,97545.19
2024-05-09T00:58:57.119Z,97538.16
2024-05-09T01:01:27.787Z,97544.19
2024-05-09T01:03:57.442Z,97533.56
2024-05-09T01:06:26.906Z,97538.94
2024-05-09T01:08:56.220Z,97532.91
2024-05-09T01:11:25.582Z,97530.28
2024-05-09T01:13:57.539Z,97539.75
2024-05-09T01:16:26.915Z,97529.28
2024-05-09T01:18:56.295Z,97529.28
2024-05-09T01:21:25.636Z,97530.94
2024-05-09T01:23:57.572Z,97536.34
2024-05-09T01:26:26.884Z,97531.25
2024-05-09T01:28:56.218Z,97534.88
2024-05-09T01:31:25.537Z,97529.81
2024-05-09T01:33:54.927Z,97526.38
2024-05-09T01:36:24.228Z,97533.25
2024-05-09T01:38:53.536Z,97524.75
2024-05-09T01:41:25.555Z,97523.13
2024-05-09T01:43:55.074Z,97525.72
2024-05-09T01:46:24.399Z,97530.97
2024-05-09T01:48:53.926Z,97525.72
2024-05-09T01:51:23.320Z,97533.56
2024-05-09T01:53:52.651Z,97533.56
2024-05-09T01:56:22.005Z,97520.50
2024-05-09T01:58:54.133Z,97530.00
2024-05-09T02:01:23.504Z,97516.28
2024-05-09T02:03:53.163Z,97522.63
2024-05-09T02:06:22.623Z,97520.19
2024-05-09T02:08:51.938Z,97516.94
2024-05-09T02:11:21.266Z,97518.91
2024-05-09T02:13:51.721Z,97514.81
2024-05-09T02:16:23.613Z,97522.81
2024-05-09T02:18:53.042Z,97518.06
2024-05-09T02:21:22.388Z,97515.63
2024-05-09T02:23:51.736Z,97514.31
2024-05-09T02:26:21.180Z,97518.25
2024-05-09T02:28:50.642Z,97519.59
2024-05-09T02:31:19.978Z,97518.28
2024-05-09T02:33:52.112Z,97526.28
2024-05-09T02:36:22.511Z,97520.41
2024-05-09T02:38:49.251Z,97532.97
2024-05-09T02:41:18.604Z,97527.28
2024-05-09T02:43:45.438Z,97524.00
2024-05-09T02:46:14.798Z,97527.91
2024-05-09T02:48:41.670Z,97524.00
2024-05-09T02:51:13.623Z,97520.88
2024-05-09T02:53:40.460Z,97527.91
2024-05-09T02:56:10.248Z,97526.47
2024-05-09T02:58:37.036Z,97524.00
2024-05-09T03:01:06.606Z,97524.34
2024-05-09T03:03:33.611Z,97523.53
2024-05-09T03:06:04.607Z,97522.22
2024-05-09T03:08:36.561Z,97526.94
2024-05-09T03:11:03.433Z,97528.44
2024-05-09T03:13:32.791Z,97521.09
2024-05-09T03:15:59.822Z,97522.38
2024-05-09T03:18:29.205Z,97526.09
2024-05-09T03:20:55.998Z,97522.88
2024-05-09T03:23:25.335Z,97524.81
2024-05-09T03:25:54.796Z,97527.44
2024-05-09T03:28:24.093Z,97525.13
2024-05-09T03:30:50.781Z,97533.78
2024-05-09T03:33:20.868Z,97532.97
2024-05-09T03:35:49.170Z,97538.19
2024-05-09T03:38:19.111Z,97535.56
2024-05-09T03:40:49.822Z,97535.09
2024-05-09T03:43:22.637Z,97531.50
2024-05-09T03:45:50.002Z,97530.72
2024-05-09T03:48:19.659Z,97524.50
2024-05-09T03:50:46.617Z,97522.53
2024-05-09T03:53:16.927Z,97518.13
2024-05-09T03:55:43.752Z,97528.72
2024-05-09T03:58:14.371Z,97524.81
2024-05-09T04:00:44.361Z,97530.34
2024-05-09T04:03:13.979Z,97530.34
2024-05-09T04:05:42.429Z,97526.94
2024-05-09T04:08:13.066Z,97529.38
2024-05-09T04:10:40.618Z,97532.97
2024-05-09T04:13:10.000Z,97528.06
2024-05-09T04:15:36.763Z,97533.44
2024-05-09T04:18:08.902Z,97536.22
2024-05-09T04:20:39.321Z,97540.47
2024-05-09T04:23:13.857Z,97541.13
2024-05-09T04:25:42.506Z,97538.34
2024-05-09T04:28:11.941Z,97543.09
2024-05-09T04:30:41.035Z,97539.50
2024-05-09T04:33:14.951Z,97548.78
2024-05-09T04:35:42.957Z,97547.81
2024-05-09T04:38:12.862Z,97539.84
2024-05-09T04:40:40.033Z,97547.34
2024-05-09T04:43:16.165Z,97547.00
2024-05-09T04:45:43.102Z,97546.34
2024-05-09T04:48:16.501Z,97541.47
2024-05-09T04:50:43.747Z,97551.44
2024-05-09T04:53:18.538Z,97549.47
2024-05-09T04:55:45.488Z,97548.34
2024-05-09T04:58:14.828Z,97546.38
2024-05-09T05:00:41.909Z,97549.31
2024-05-09T05:03:14.856Z,97547.34
2024-05-09T05:05:46.178Z,97540.31
2024-05-09T05:08:17.243Z,97541.16
2024-05-09T05:10:45.269Z,97543.59
2024-05-09T05:13:23.911Z,97534.59
2024-05-09T05:15:53.708Z,97541.47
2024-05-09T05:18:24.730Z,97541.47
2024-05-09T05:20:55.670Z,97531.84
2024-05-09T05:23:25.770Z,97541.63
2024-05-09T05:25:53.752Z,97539.84
2024-05-09T05:28:23.740Z,97547.50
2024-05-09T05:30:50.793Z,97539.84
2024-05-09T05:33:22.322Z,97544.09
2024-05-09T05:35:49.683Z,97543.28
2024-05-09T05:38:25.035Z,97545.72
2024-05-09T05:40:54.261Z,97539.69
2024-05-09T05:43:23.637Z,97551.59
2024-05-09T05:45:50.380Z,97549.63
2024-05-09T05:48:19.906Z,97551.28
2024-05-09T05:50:46.912Z,97558.13
2024-05-09T05:53:16.524Z,97556.66
2024-05-09T05:55:45.998Z,97554.22
2024-05-09T05:58:15.355Z,97548.63
2024-05-09T06:00:42.792Z,97555.03
2024-05-09T06:03:14.465Z,97561.22
2024-05-09T06:05:43.673Z,97556.81
2024-05-09T06:08:13.947Z,97561.03
2024-05-09T06:10:41.700Z,97560.38
2024-05-09T06:13:15.625Z,97555.94
2024-05-09T06:15:43.238Z,97557.72
2024-05-09T06:18:13.289Z,97547.88
2024-05-09T06:20:41.911Z,97549.97
2024-05-09T06:23:13.035Z,97545.88
2024-05-09T06:25:40.624Z,97550.09
2024-05-09T06:28:09.958Z,97554.13
2024-05-09T06:30:42.222Z,97555.53
2024-05-09T06:33:15.603Z,97557.94
2024-05-09T06:35:43.618Z,97555.13
2024-05-09T06:38:13.247Z,97542.94
2024-05-09T06:40:42.368Z,97544.72
2024-05-09T06:43:14.031Z,97536.97
2024-05-09T06:45:43.944Z,97546.41
2024-05-09T06:48:13.959Z,97541.31
2024-05-09T06:50:41.604Z,97537.81
2024-05-09T06:53:11.265Z,97539.91
2024-05-09T06:55:38.265Z,97540.19
2024-05-09T06:58:09.664Z,97541.72
2024-05-09T07:00:39.789Z,97542.31
2024-05-09T07:03:16.791Z,97538.44
2024-05-09T07:05:45.795Z,97541.00
2024-05-09T07:08:15.841Z,97547.41
2024-05-09T07:10:42.858Z,97539.47
2024-05-09T07:13:12.743Z,97539.38
2024-05-09T07:15:40.215Z,97545.53
2024-05-09T07:18:19.955Z,97542.81
2024-05-09T07:20:48.245Z,97546.78
2024-05-09T07:23:18.695Z,97550.75
2024-05-09T07:25:45.839Z,97547.31
2024-05-09T07:28:16.990Z,97549.47
2024-05-09T07:30:44.282Z,97544.56
2024-05-09T07:33:23.171Z,97544.88
2024-05-09T07:35:51.285Z,97547.81
2024-05-09T07:38:20.828Z,97543.88
2024-05-09T07:40:47.941Z,97551.28
2024-05-09T07:43:17.534Z,97550.50
2024-05-09T07:45:51.882Z,97543.69
2024-05-09T07:50:00.063Z,97542.09
2024-05-09T07:53:50.602Z,97537.03
2024-05-09T07:56:22.104Z,97536.69
2024-05-09T07:58:53.195Z,97540.00
2024-05-09T08:01:20.725Z,97531.97
2024-05-09T08:03:53.250Z,97529.19
2024-05-09T08:06:22.717Z,97534.09
2024-05-09T08:08:49.811Z,97535.78
2024-05-09T08:11:19.624Z,97533.38
2024-05-09T08:13:46.431Z,97526.13
2024-05-09T08:16:16.764Z,97529.78
2024-05-09T08:18:43.565Z,97531.03
2024-05-09T08:21:15.463Z,97532.50
2024-05-09T08:23:42.212Z,97532.31
2024-05-09T08:26:11.567Z,97525.44
2024-05-09T08:28:38.269Z,97531.56
2024-05-09T08:31:07.860Z,97526.53
2024-05-09T08:33:34.946Z,97530.78
2024-05-09T08:36:04.460Z,97513.56
2024-05-09T08:38:33.726Z,97521.69
2024-05-09T08:41:06.090Z,97518.66
2024-05-09T08:43:32.943Z,97518.44
2024-05-09T08:46:04.852Z,97509.72
2024-05-09T08:48:39.308Z,97511.75
2024-05-09T08:51:09.483Z,97510.34
2024-05-09T08:53:39.578Z,97515.63
2024-05-09T08:56:12.130Z,97516.25
2024-05-09T08:58:39.105Z,97514.22
2024-05-09T09:01:09.599Z,97509.75
2024-05-09T09:03:37.436Z,97514.19
2024-05-09T09:06:09.429Z,97516.47
2024-05-09T09:08:39.491Z,97505.69
2024-05-09T09:11:08.967Z,97501.84
2024-05-09T09:13:35.660Z,97506.88
2024-05-09T09:16:05.066Z,97507.69
2024-05-09T09:18:32.816Z,97511.72
2024-05-09T09:21:02.830Z,97512.50
2024-05-09T09:23:29.930Z,97521.03
2024-05-09T09:26:03.764Z,97522.06
2024-05-09T09:28:30.555Z,97508.84
2024-05-09T09:31:04.114Z,97518.16
2024-05-09T09:33:31.709Z,97526.06
2024-05-09T09:36:01.907Z,97520.53
2024-05-09T09:38:31.213Z,97520.88
2024-05-09T09:41:07.836Z,97522.03
2024-05-09T09:43:36.436Z,97514.91
2024-05-09T09:46:09.733Z,97516.06
2024-05-09T09:48:40.500Z,97519.91
2024-05-09T09:51:10.985Z,97520.97
2024-05-09T09:53:38.621Z,97514.06
2024-05-09T09:56:12.762Z,97525.69
2024-05-09T09:58:42.193Z,97514.72
2024-05-09T10:01:11.728Z,97519.63
2024-05-09T10:03:38.906Z,97522.47
2024-05-09T10:06:10.283Z,97515.59
2024-05-09T10:08:37.889Z,97524.09
2024-05-09T10:11:09.940Z,97512.31
2024-05-09T10:13:36.836Z,97515.34
2024-05-09T10:16:10.826Z,97513.13
2024-05-09T10:18:37.932Z,97508.44
2024-05-09T10:21:18.182Z,97511.88
2024-05-09T10:23:56.316Z,97516.34
2024-05-09T10:26:35.651Z,97509.88
2024-05-09T10:29:12.594Z,97511.13
2024-05-09T10:31:45.571Z,97511.38
2024-05-09T10:34:19.315Z,97508.75
2024-05-09T10:36:49.024Z,97499.63
2024-05-09T10:39:16.008Z,97502.72
2024-05-09T10:41:47.960Z,97494.78
2024-05-09T10:44:16.334Z,97500.03
2024-05-09T10:46:45.971Z,97503.03
2024-05-09T10:49:14.146Z,97498.38
2024-05-09T10:51:44.446Z,97496.31
2024-05-09T10:54:11.348Z,97494.44
2024-05-09T10:56:41.888Z,97485.09
2024-05-09T10:59:12.741Z,97486.69
2024-05-09T11:01:42.989Z,97484.63
2024-05-09T11:04:10.154Z,97483.41
2024-05-09T11:06:39.976Z,97483.44
2024-05-09T11:09:06.920Z,97481.00
2024-05-09T11:11:36.369Z,97466.56
2024-05-09T11:14:14.278Z,97470.63
2024-05-09T11:16:43.663Z,97465.94
2024-05-09T11:19:12.769Z,97465.53
2024-05-09T11:21:42.546Z,97460.47
2024-05-09T11:24:11.395Z,97459.06
2024-05-09T11:26:41.165Z,97456.22
2024-05-09T11:29:07.882Z,97457.44
2024-05-09T11:31:49.563Z,97459.09
2024-05-09T11:34:16.475Z,97456.25
2024-05-09T11:36:46.006Z,97453.38
2024-05-09T11:39:14.616Z,97453.81
2024-05-09T11:41:43.990Z,97443.69
2024-05-09T11:44:10.719Z,97444.25
2024-05-09T11:46:40.020Z,97443.25
2024-05-09T11:49:12.593Z,97449.13
2024-05-09T11:51:39.570Z,97430.63
2024-05-09T11:54:08.868Z,97437.53
2024-05-09T11:56:35.773Z,97441.19
2024-05-09T11:59:05.529Z,97434.28
2024-05-09T12:01:32.513Z,97434.03
2024-05-09T12:04:02.158Z,97429.13
2024-05-09T12:06:31.733Z,97434.56
2024-05-09T12:09:01.170Z,97436.16
2024-05-09T12:11:27.929Z,97445.22
2024-05-09T12:13:57.199Z,97436.34
2024-05-09T12:16:24.398Z,97415.09
2024-05-09T12:18:54.088Z,97431.94
2024-05-09T12:21:20.861Z,97429.28
2024-05-09T12:23:52.756Z,97420.75
2024-05-09T12:26:19.569Z,97420.75
2024-05-09T12:28:48.929Z,97414.94
2024-05-09T12:31:15.657Z,97422.28
2024-05-09T12:33:45.120Z,97412.94
2024-05-09T12:36:11.926Z,97423.53
2024-05-09T12:38:41.375Z,97419.28
2024-05-09T12:41:10.686Z,97417.81
2024-05-09T12:43:40.000Z,97414.72
2024-05-09T12:46:06.825Z,97415.53
2024-05-09T12:48:36.376Z,97411.47
2024-05-09T12:51:03.282Z,97413.31
2024-05-09T12:53:32.552Z,97408.25
2024-05-09T12:56:02.359Z,97401.97
2024-05-09T12:58:35.612Z,97398.53
2024-05-09T13:01:02.415Z,97400.16
2024-05-09T13:03:31.885Z,97394.88
2024-05-09T13:05:58.902Z,97392.00
2024-05-09T13:08:28.335Z,97385.03
2024-05-09T13:10:55.275Z,97389.88
2024-05-09T13:13:24.724Z,97390.31
2024-05-09T13:15:54.309Z,97388.94
2024-05-09T13:18:23.695Z,97380.41
2024-05-09T13:20:50.400Z,97384.66
2024-05-09T13:23:19.728Z,97381.41
2024-05-09T13:25:46.505Z,97374.53
2024-05-09T13:28:16.167Z,97375.75
2024-05-09T13:30:43.132Z,97369.22
2024-05-09T13:33:15.855Z,97366.38
2024-05-09T13:35:47.262Z,97366.53
2024-05-09T13:38:20.761Z,97371.34
2024-05-09T13:40:48.448Z,97369.56
2024-05-09T13:43:18.534Z,97365.47
2024-05-09T13:45:45.729Z,97367.19
2024-05-09T13:48:17.886Z,97364.38
2024-05-09T13:50:44.656Z,97364.00
2024-05-09T13:53:14.326Z,97355.47
2024-05-09T13:55:41.082Z,97362.38
2024-05-09T13:58:10.897Z,97355.91
2024-05-09T14:00:45.058Z,97353.84
2024-05-09T14:03:21.442Z,97350.19
2024-05-09T14:05:49.934Z,97347.34
2024-05-09T14:08:22.142Z,97348.13
2024-05-09T14:10:49.790Z,97345.50
2024-05-09T14:13:19.674Z,97337.09
2024-05-09T14:15:46.818Z,97340.94
2024-05-09T14:18:16.409Z,97341.09
2024-05-09T14:20:45.770Z,97338.88
2024-05-09T14:23:15.083Z,97328.31
2024-05-09T14:25:43.393Z,97324.66
2024-05-09T14:28:13.997Z,97332.13
2024-05-09T14:30:41.025Z,97328.44
2024-05-09T14:33:11.226Z,97326.97
2024-05-09T14:35:38.996Z,97332.88
2024-05-09T14:38:11.576Z,97324.13
2024-05-09T14:40:42.954Z,97318.25
2024-05-09T14:43:14.369Z,97314.22
2024-05-09T14:45:41.822Z,97315.66
2024-05-09T14:48:11.617Z,97315.28
2024-05-09T14:50:40.209Z,97314.28
2024-05-09T14:53:14.180Z,97318.75
2024-05-09T14:55:42.770Z,97313.91
2024-05-09T14:58:13.774Z,97311.91
2024-05-09T15:00:46.146Z,97311.91
2024-05-09T15:03:19.829Z,97307.44
2024-05-09T15:05:47.501Z,97303.78
2024-05-09T15:08:20.329Z,97298.91
2024-05-09T15:10:49.618Z,97294.66
2024-05-09T15:13:20.033Z,97290.97
2024-05-09T15:15:47.075Z,97278.94
2024-05-09T15:18:17.041Z,97280.56
2024-05-09T15:20:44.763Z,97285.84
2024-05-09T15:23:14.318Z,97279.97
2024-05-09T15:25:44.710Z,97279.97
2024-05-09T15:28:14.182Z,97275.47
2024-05-09T15:30:45.370Z,97275.47
2024-05-09T15:33:15.803Z,97277.31
2024-05-09T15:35:42.594Z,97274.69
2024-05-09T15:38:12.195Z,97276.53
2024-05-09T15:40:40.722Z,97268.00
2024-05-09T15:43:13.248Z,97272.31
2024-05-09T15:45:41.124Z,97265.63
2024-05-09T15:48:11.982Z,97274.22
2024-05-09T15:50:41.446Z,97261.66
2024-05-09T15:53:13.127Z,97268.75
2024-05-09T15:55:41.506Z,97268.22
2024-05-09T15:58:13.828Z,97259.22
2024-05-09T16:00:43.614Z,97256.38
2024-05-09T16:03:15.639Z,97254.75
2024-05-09T16:05:44.082Z,97258.78
2024-05-09T16:08:14.666Z,97265.69
2024-05-09T16:10:44.483Z,97258.56
2024-05-09T16:13:19.616Z,97265.69
2024-05-09T16:15:46.855Z,97253.50
2024-05-09T16:18:16.360Z,97253.50
2024-05-09T16:23:12.709Z,97254.53
2024-05-09T16:25:40.141Z,97252.34
2024-05-09T16:28:10.873Z,97258.06
2024-05-09T16:30:41.133Z,97258.50
2024-05-09T16:33:11.719Z,97257.66
2024-05-09T16:35:39.492Z,97258.50
2024-05-09T16:38:09.208Z,97257.66
2024-05-09T16:40:39.661Z,97260.56
2024-05-09T16:43:11.222Z,97255.69
2024-05-09T16:45:43.798Z,97255.09
2024-05-09T16:48:14.074Z,97255.69
2024-05-09T16:50:41.220Z,97251.44
2024-05-09T16:53:10.748Z,97253.28
2024-05-09T16:55:38.365Z,97244.94
2024-05-09T16:58:09.041Z,97244.94
2024-05-09T17:00:41.366Z,97240.69
2024-05-09T17:03:16.705Z,97245.97
2024-05-09T17:05:45.977Z,97240.69
2024-05-09T17:08:18.451Z,97233.34
2024-05-09T17:10:45.903Z,97250.03
2024-05-09T17:13:15.520Z,97240.28
2024-05-09T17:15:44.906Z,97238.44
2024-05-09T17:18:17.048Z,97235.78
2024-05-09T17:20:43.758Z,97231.72
2024-05-09T17:23:14.920Z,97238.03
2024-05-09T17:25:42.616Z,97240.91
2024-05-09T17:28:12.753Z,97233.19
2024-05-09T17:30:41.604Z,97230.75
2024-05-09T17:33:13.214Z,97222.81
2024-05-09T17:35:45.622Z,97232.59
2024-05-09T17:38:15.346Z,97236.84
2024-05-09T17:40:42.130Z,97236.84
2024-05-09T17:43:12.754Z,97242.34
2024-05-09T17:45:40.976Z,97238.09
2024-05-09T17:48:12.391Z,97239.13
2024-05-09T17:50:39.813Z,97237.50
2024-05-09T17:53:12.249Z,97239.56
2024-05-09T17:55:39.937Z,97239.19
2024-05-09T17:58:10.089Z,97238.59
2024-05-09T18:00:40.275Z,97245.31
2024-05-09T18:03:13.895Z,97241.28
2024-05-09T18:05:42.727Z,97244.59
2024-05-09T18:08:15.612Z,97243.78
2024-05-09T18:10:42.728Z,97244.00
2024-05-09T18:13:12.924Z,97235.91
2024-05-09T18:15:40.537Z,97237.38
2024-05-09T18:18:10.726Z,97235.38
2024-05-09T18:20:43.702Z,97234.38
2024-05-09T18:23:19.944Z,97241.56
2024-05-09T18:25:47.342Z,97247.28
2024-05-09T18:28:17.787Z,97244.09
2024-05-09T18:30:44.878Z,97245.19
2024-05-09T18:33:14.906Z,97247.25
2024-05-09T18:35:43.050Z,97251.16
2024-05-09T18:38:12.555Z,97243.47
2024-05-09T18:40:44.768Z,97247.38
2024-05-09T18:43:16.654Z,97247.63
2024-05-09T18:45:44.470Z,97244.59
2024-05-09T18:48:14.201Z,97245.88
2024-05-09T18:50:41.758Z,97248.72
2024-05-09T18:53:13.411Z,97250.16
2024-05-09T18:55:43.342Z,97259.53
2024-05-09T18:58:12.837Z,97255.50
2024-05-09T19:00:42.649Z,97256.13
2024-05-09T19:03:15.140Z,97257.31
2024-05-09T19:05:43.993Z,97266.84
2024-05-09T19:08:15.069Z,97267.28
2024-05-09T19:10:45.866Z,97271.09
2024-05-09T19:13:16.441Z,97261.38
2024-05-09T19:15:44.122Z,97265.97
2024-05-09T19:18:15.174Z,97277.16
2024-05-09T19:20:42.602Z,97274.69
2024-05-09T19:23:12.306Z,97274.97
2024-05-09T19:25:39.103Z,97283.34
2024-05-09T19:28:11.412Z,97286.88
2024-05-09T19:30:41.446Z,97287.22
2024-05-09T19:33:13.689Z,97289.00
2024-05-09T19:35:41.283Z,97291.19
2024-05-09T19:38:10.819Z,97295.63
2024-05-09T19:40:37.619Z,97300.03
2024-05-09T19:43:07.594Z,97302.50
2024-05-09T19:45:37.034Z,97299.25
2024-05-09T19:48:07.129Z,97298.00
2024-05-09T19:50:41.353Z,97294.72
2024-05-09T19:53:14.057Z,97297.91
2024-05-09T19:55:41.037Z,97302.75
2024-05-09T19:58:12.293Z,97299.50
2024-05-09T20:00:43.827Z,97291.81
2024-05-09T20:03:15.652Z,97293.00
2024-05-09T20:05:45.133Z,97302.25
2024-05-09T20:08:14.915Z,97304.25
2024-05-09T20:10:41.802Z,97307.88
2024-05-09T20:13:11.198Z,97309.50
2024-05-09T20:15:38.375Z,97309.09
2024-05-09T20:18:10.950Z,97305.50
2024-05-09T20:20:41.674Z,97304.47
2024-05-09T20:23:13.000Z,97306.28
2024-05-09T20:25:40.187Z,97307.88
2024-05-09T20:28:10.355Z,97306.97
2024-05-09T20:30:37.452Z,97312.56
2024-05-09T20:33:10.396Z,97311.22
2024-05-09T20:35:37.500Z,97309.91
2024-05-09T20:38:07.124Z,97313.00
2024-05-09T20:40:37.722Z,97309.50
2024-05-09T20:43:08.855Z,97299.75
2024-05-09T20:45:36.364Z,97311.44
2024-05-09T20:48:06.212Z,97304.72
2024-05-09T20:50:39.807Z,97303.66
2024-05-09T20:53:13.196Z,97307.19
2024-05-09T20:55:44.641Z,97307.31
2024-05-09T20:58:12.075Z,97310.28
2024-05-09T21:00:44.586Z,97310.00
2024-05-09T21:03:13.794Z,97301.41
2024-05-09T21:05:47.443Z,97296.88
2024-05-09T21:08:14.897Z,97298.22
2024-05-09T21:10:44.299Z,97303.84
2024-05-09T21:13:11.413Z,97298.31
2024-05-09T21:15:40.833Z,97294.78
2024-05-09T21:18:07.952Z,97299.13
2024-05-09T21:20:37.692Z,97290.16
2024-05-09T21:23:07.272Z,97287.13
2024-05-09T21:25:36.695Z,97291.88
2024-05-09T21:28:04.434Z,97296.38
2024-05-09T21:30:41.255Z,97287.44
2024-05-09T21:33:11.771Z,97286.69
2024-05-09T21:35:43.092Z,97291.13
2024-05-09T21:38:14.026Z,97290.31
2024-05-09T21:40:43.949Z,97291.47
2024-05-09T21:43:10.991Z,97293.47
2024-05-09T21:45:40.434Z,97281.56
2024-05-09T21:48:08.244Z,97287.31
2024-05-09T21:50:41.056Z,97277.53
2024-05-09T21:53:12.868Z,97286.91
2024-05-09T21:55:42.934Z,97285.81
2024-05-09T21:58:10.528Z,97284.34
2024-05-09T22:00:42.787Z,97281.91
2024-05-09T22:03:11.218Z,97282.09
2024-05-09T22:05:44.374Z,97280.47
2024-05-09T22:08:14.241Z,97292.53
2024-05-09T22:10:43.705Z,97288.50
2024-05-09T22:13:10.502Z,97280.97
2024-05-09T22:15:41.116Z,97286.56
2024-05-09T22:18:09.878Z,97285.44
2024-05-09T22:20:43.673Z,97286.16
2024-05-09T22:23:11.785Z,97275.41
2024-05-09T22:25:43.978Z,97280.34
2024-05-09T22:28:14.552Z,97281.00
2024-05-09T22:30:46.083Z,97290.53
2024-05-09T22:33:13.467Z,97283.84
2024-05-09T22:35:42.967Z,97292.50
2024-05-09T22:38:09.795Z,97289.22
2024-05-09T22:40:47.259Z,97291.56
2024-05-09T22:43:21.011Z,97287.34
2024-05-09T22:45:52.244Z,97288.69
2024-05-09T22:48:19.529Z,97294.41
2024-05-09T22:50:48.944Z,97289.88
2024-05-09T22:53:15.668Z,97282.06
2024-05-09T22:55:45.091Z,97285.50
2024-05-09T22:58:11.982Z,97289.13
2024-05-09T23:00:44.128Z,97291.44
2024-05-09T23:03:11.738Z,97288.34
2024-05-09T23:05:41.093Z,97289.50
2024-05-09T23:08:08.533Z,97288.22
2024-05-09T23:10:38.550Z,97287.56
2024-05-09T23:13:06.608Z,97292.13
2024-05-09T23:15:36.516Z,97284.94
2024-05-09T23:18:06.546Z,97299.94
2024-05-09T23:20:39.042Z,97292.75
2024-05-09T23:23:07.175Z,97297.47
2024-05-09T23:25:36.728Z,97288.34
2024-05-09T23:28:04.481Z,97292.41
2024-05-09T23:30:38.341Z,97289.78
2024-05-09T23:33:11.324Z,97288.97
2024-05-09T23:35:40.980Z,97288.34
2024-05-09T23:38:07.702Z,97282.47
2024-05-09T23:40:40.025Z,97287.19
2024-05-09T23:43:08.740Z,97282.66
2024-05-09T23:45:38.499Z,97279.06
2024-05-09T23:48:06.364Z,97284.66
2024-05-09T23:50:40.115Z,97279.75
2024-05-09T23:53:10.968Z,97276.47
2024-05-09T23:55:38.620Z,97283.84
2024-05-09T23:58:08.854Z,97281.09
